Time;durP1;ratioP1;P1;durP2;ratioP2;P2;SDS_P1;SDS_P2;PMS_P1;PMS_P2;Temp;Humidity;BMP_temperature;BMP_pressure;BME280_temperature;BME280_humidity;BME280_pressure;Samples;Min_cycle;Max_cycle;Signal;HPM_P1;HPM_P2
2022/11/30 00:00:09;;;;;;;90.65;45.40;;;;;;;;;;1043306;28;20059;-76
2022/11/30 00:00:40;;;;;;;103.80;50.85;;;;;;;;;;1043369;28;20029;-76
2022/11/30 00:01:11;;;;;;;97.50;47.05;;;;;;;;;;1043909;28;20024;-76
2022/11/30 00:01:41;;;;;;;106.07;50.60;;;;;;;;;;1049445;28;20022;-76
2022/11/30 00:02:12;;;;;;;106.28;49.63;;;;;;;;;;1045444;28;20033;-76
2022/11/30 00:02:42;;;;;;;108.40;50.50;;;;;;;;;;1045256;28;20476;-76
2022/11/30 00:03:13;;;;;;;122.53;56.17;;;;;;;;;;1045356;28;20107;-76
2022/11/30 00:03:44;;;;;;;120.57;58.65;;;;;;;;;;1045383;28;20029;-76
2022/11/30 00:04:14;;;;;;;123.90;57.75;;;;;;;;;;1045473;28;20029;-76
2022/11/30 00:04:45;;;;;;;119.20;54.20;;;;;;;;;;1043023;28;20424;-74
2022/11/30 00:05:16;;;;;;;125.88;53.53;;;;;;;;;;1039066;28;20022;-74
2022/11/30 00:05:46;;;;;;;107.95;50.17;;;;;;;;;;1039271;28;20564;-74
2022/11/30 00:06:22;;;;;;;100.30;49.03;;;;;;;;;;1043430;28;20056;-74
2022/11/30 00:06:56;;;;;;;121.93;49.50;;;;;;;;;;1044148;28;20174;-74
2022/11/30 00:07:26;;;;;;;109.45;51.15;;;;;;;;;;1045380;28;21410;-74
2022/11/30 00:07:59;;;;;;;108.05;51.42;;;;;;;;;;1046499;28;20458;-74
2022/11/30 00:08:30;;;;;;;104.50;45.55;;;;;;;;;;1049958;28;20016;-74
2022/11/30 00:09:00;;;;;;;96.35;45.80;;;;;;;;;;1049359;28;20013;-74
2022/11/30 00:09:31;;;;;;;112.25;49.45;;;;;;;;;;1049383;28;20037;-74
2022/11/30 00:10:01;;;;;;;94.90;43.53;;;;;;;;;;1049836;28;20016;-74
2022/11/30 00:10:32;;;;;;;96.28;45.03;;;;;;;;;;1049814;28;20111;-74
2022/11/30 00:11:13;;;;;;;103.78;45.08;;;;;;;;;;1049362;28;20021;-74
2022/11/30 00:11:43;;;;;;;88.00;42.45;;;;;;;;;;1049472;28;20032;-74
2022/11/30 00:12:14;;;;;;;88.93;40.65;;;;;;;;;;1050012;28;20024;-74
2022/11/30 00:12:44;;;;;;;65.18;29.10;;;;;;;;;;1045150;28;20025;-74
2022/11/30 00:13:15;;;;;;;83.47;37.35;;;;;;;;;;1044632;28;20029;-74
2022/11/30 00:13:46;;;;;;;65.97;31.48;;;;;;;;;;1044735;28;20126;-74
2022/11/30 00:14:17;;;;;;;76.53;34.95;;;;;;;;;;1045259;28;20468;-74
2022/11/30 00:14:48;;;;;;;51.25;28.95;;;;;;;;;;1044188;28;20029;-74
2022/11/30 00:15:19;;;;;;;50.33;26.45;;;;;;;;;;1045388;28;20016;-74
2022/11/30 00:15:49;;;;;;;49.20;27.58;;;;;;;;;;1045103;28;20032;-74
2022/11/30 00:16:20;;;;;;;53.47;28.77;;;;;;;;;;1041210;28;20080;-74
2022/11/30 00:16:51;;;;;;;55.35;24.45;;;;;;;;;;1041143;28;20461;-74
2022/11/30 00:17:21;;;;;;;56.63;27.48;;;;;;;;;;1042088;28;20026;-74
2022/11/30 00:17:56;;;;;;;56.72;26.60;;;;;;;;;;1041130;28;20033;-74
2022/11/30 00:18:26;;;;;;;47.13;25.17;;;;;;;;;;1046083;28;20040;-74
2022/11/30 00:18:57;;;;;;;59.78;28.65;;;;;;;;;;1049764;28;20063;-74
2022/11/30 00:19:28;;;;;;;49.25;23.85;;;;;;;;;;1045182;28;20039;-74
2022/11/30 00:19:58;;;;;;;48.92;24.95;;;;;;;;;;1044982;28;20053;-74
2022/11/30 00:20:29;;;;;;;47.35;21.75;;;;;;;;;;1045525;28;20025;-74
2022/11/30 00:21:00;;;;;;;50.42;23.48;;;;;;;;;;1045183;28;20095;-74
2022/11/30 00:21:31;;;;;;;49.88;26.23;;;;;;;;;;1045139;28;20049;-74
2022/11/30 00:22:01;;;;;;;48.35;22.17;;;;;;;;;;1045211;28;20028;-74
2022/11/30 00:22:32;;;;;;;47.55;23.00;;;;;;;;;;1045645;28;20124;-74
2022/11/30 00:23:03;;;;;;;47.67;23.25;;;;;;;;;;1045219;28;20102;-74
2022/11/30 00:23:34;;;;;;;45.45;21.92;;;;;;;;;;1041953;28;20024;-74
2022/11/30 00:24:04;;;;;;;38.38;21.85;;;;;;;;;;1041910;28;20021;-74
2022/11/30 00:24:35;;;;;;;45.65;22.25;;;;;;;;;;1042204;28;20092;-74
2022/11/30 00:25:06;;;;;;;46.85;22.55;;;;;;;;;;1046489;28;20075;-74
2022/11/30 00:25:36;;;;;;;45.45;21.15;;;;;;;;;;1046254;28;20024;-77
2022/11/30 00:26:08;;;;;;;53.67;23.55;;;;;;;;;;1045665;28;20080;-77
2022/11/30 00:26:39;;;;;;;49.20;22.58;;;;;;;;;;1045077;28;20466;-77
2022/11/30 00:27:09;;;;;;;50.83;24.45;;;;;;;;;;1044684;28;20116;-77
2022/11/30 00:27:40;;;;;;;67.68;27.60;;;;;;;;;;1046162;28;20450;-77
2022/11/30 00:28:10;;;;;;;53.08;23.75;;;;;;;;;;1046260;28;20500;-77
2022/11/30 00:28:42;;;;;;;51.30;23.90;;;;;;;;;;1050576;28;20488;-75
2022/11/30 00:29:12;;;;;;;55.30;25.80;;;;;;;;;;1051414;28;20471;-75
2022/11/30 00:29:43;;;;;;;59.08;26.48;;;;;;;;;;1050425;28;20031;-75
2022/11/30 00:30:14;;;;;;;61.58;27.52;;;;;;;;;;1049416;28;20024;-75
2022/11/30 00:30:44;;;;;;;47.80;24.95;;;;;;;;;;1045863;28;20031;-75
2022/11/30 00:31:15;;;;;;;53.22;25.38;;;;;;;;;;1043528;28;20020;-75
2022/11/30 00:31:46;;;;;;;46.10;22.50;;;;;;;;;;1042997;28;20021;-75
2022/11/30 00:32:18;;;;;;;52.33;24.10;;;;;;;;;;1044101;28;20587;-75
2022/11/30 00:32:48;;;;;;;57.47;23.17;;;;;;;;;;1039357;28;20555;-75
2022/11/30 00:33:19;;;;;;;48.22;24.30;;;;;;;;;;1042066;28;20044;-75
2022/11/30 00:33:49;;;;;;;47.83;23.33;;;;;;;;;;1045856;28;20036;-75
2022/11/30 00:34:20;;;;;;;54.95;25.02;;;;;;;;;;1046318;28;20035;-75
2022/11/30 00:34:50;;;;;;;53.05;24.60;;;;;;;;;;1045745;28;20091;-75
2022/11/30 00:35:21;;;;;;;58.05;24.35;;;;;;;;;;1045993;28;20021;-75
2022/11/30 00:35:58;;;;;;;58.65;25.20;;;;;;;;;;1044842;28;20032;-75
2022/11/30 00:36:29;;;;;;;47.67;24.60;;;;;;;;;;1046123;28;20016;-75
2022/11/30 00:36:59;;;;;;;41.83;23.85;;;;;;;;;;1046034;28;20029;-75
2022/11/30 00:37:30;;;;;;;43.83;23.90;;;;;;;;;;1046680;28;20032;-75
2022/11/30 00:38:01;;;;;;;37.78;21.88;;;;;;;;;;1043460;28;20029;-75
2022/11/30 00:38:32;;;;;;;42.53;20.50;;;;;;;;;;1043673;28;20021;-75
2022/11/30 00:39:03;;;;;;;39.08;19.88;;;;;;;;;;1043522;28;20029;-75
2022/11/30 00:39:33;;;;;;;41.03;19.98;;;;;;;;;;1043532;28;20025;-75
2022/11/30 00:40:04;;;;;;;43.90;20.92;;;;;;;;;;1041680;28;20076;-75
2022/11/30 00:40:35;;;;;;;52.80;24.83;;;;;;;;;;1036974;28;20056;-75
2022/11/30 00:41:06;;;;;;;47.20;25.25;;;;;;;;;;1038236;28;20071;-75
2022/11/30 00:41:36;;;;;;;43.92;24.17;;;;;;;;;;1040774;28;20036;-75
2022/11/30 00:42:07;;;;;;;51.47;25.55;;;;;;;;;;1040708;28;20027;-74
2022/11/30 00:42:37;;;;;;;49.85;24.80;;;;;;;;;;1040915;28;20632;-74
2022/11/30 00:43:08;;;;;;;49.42;24.20;;;;;;;;;;1046412;28;20017;-74
2022/11/30 00:43:38;;;;;;;45.67;23.67;;;;;;;;;;1050304;28;20035;-74
2022/11/30 00:44:09;;;;;;;49.50;23.95;;;;;;;;;;1050550;28;20017;-74
2022/11/30 00:44:39;;;;;;;50.38;23.08;;;;;;;;;;1050492;28;20028;-74
2022/11/30 00:45:10;;;;;;;52.58;26.30;;;;;;;;;;1050241;28;20035;-74
2022/11/30 00:45:40;;;;;;;51.88;24.05;;;;;;;;;;1044832;28;20020;-74
2022/11/30 00:46:11;;;;;;;47.88;23.25;;;;;;;;;;1046268;28;20020;-74
2022/11/30 00:46:41;;;;;;;54.08;24.27;;;;;;;;;;1043371;28;20028;-74
2022/11/30 00:47:12;;;;;;;48.85;24.08;;;;;;;;;;1043911;28;20477;-74
2022/11/30 00:47:43;;;;;;;46.75;24.05;;;;;;;;;;1046068;28;20071;-74
2022/11/30 00:48:13;;;;;;;60.17;26.52;;;;;;;;;;1043618;28;20497;-74
2022/11/30 00:48:44;;;;;;;52.65;23.98;;;;;;;;;;1045743;28;20115;-74
2022/11/30 00:49:14;;;;;;;57.10;24.35;;;;;;;;;;1046011;28;20017;-76
2022/11/30 00:49:45;;;;;;;51.70;25.20;;;;;;;;;;1045807;28;20025;-74
2022/11/30 00:50:15;;;;;;;44.58;20.05;;;;;;;;;;1049550;28;20081;-74
2022/11/30 00:50:50;;;;;;;41.00;20.63;;;;;;;;;;1050322;28;20020;-74
2022/11/30 00:51:20;;;;;;;43.85;19.67;;;;;;;;;;1051099;28;20040;-74
2022/11/30 00:51:51;;;;;;;38.92;18.67;;;;;;;;;;1050329;28;20691;-74
2022/11/30 00:52:22;;;;;;;42.85;20.77;;;;;;;;;;1048693;28;20027;-74
2022/11/30 00:52:52;;;;;;;43.97;21.42;;;;;;;;;;1049269;28;20379;-74
2022/11/30 00:53:23;;;;;;;49.83;21.63;;;;;;;;;;1050564;28;20065;-74
2022/11/30 00:53:53;;;;;;;45.42;22.75;;;;;;;;;;1049978;28;20099;-74
2022/11/30 00:54:24;;;;;;;42.33;19.55;;;;;;;;;;1050411;28;20027;-74
2022/11/30 00:54:55;;;;;;;47.83;22.67;;;;;;;;;;1045684;28;20464;-74
2022/11/30 00:55:26;;;;;;;66.00;24.23;;;;;;;;;;1043708;28;20082;-74
2022/11/30 00:55:56;;;;;;;43.97;20.60;;;;;;;;;;1040660;28;20039;-74
2022/11/30 00:56:27;;;;;;;53.30;25.38;;;;;;;;;;1044114;28;20028;-74
2022/11/30 00:56:57;;;;;;;50.95;25.75;;;;;;;;;;1045891;28;20104;-74
2022/11/30 00:57:28;;;;;;;43.75;22.48;;;;;;;;;;1041628;28;20021;-74
2022/11/30 00:57:59;;;;;;;48.42;24.25;;;;;;;;;;1039412;28;20036;-74
2022/11/30 00:58:30;;;;;;;47.63;21.98;;;;;;;;;;1037485;28;20068;-74
2022/11/30 00:59:00;;;;;;;41.13;20.83;;;;;;;;;;1037828;28;20021;-74
2022/11/30 00:59:31;;;;;;;54.17;25.23;;;;;;;;;;1042056;28;20032;-74
2022/11/30 01:00:02;;;;;;;46.97;23.17;;;;;;;;;;1046997;28;20029;-74
2022/11/30 01:00:33;;;;;;;43.00;24.95;;;;;;;;;;1046217;28;20083;-74
2022/11/30 01:01:04;;;;;;;51.95;24.58;;;;;;;;;;1045446;28;20519;-74
2022/11/30 01:01:35;;;;;;;61.90;29.23;;;;;;;;;;1045383;28;20495;-74
2022/11/30 01:02:05;;;;;;;48.40;23.90;;;;;;;;;;1045730;28;20028;-74
2022/11/30 01:02:36;;;;;;;53.38;24.42;;;;;;;;;;1050920;28;20024;-74
2022/11/30 01:03:06;;;;;;;55.50;26.58;;;;;;;;;;1049611;28;20027;-75
2022/11/30 01:03:37;;;;;;;56.75;28.00;;;;;;;;;;1050950;28;20028;-75
2022/11/30 01:04:08;;;;;;;55.85;27.77;;;;;;;;;;1049742;28;20058;-75
2022/11/30 01:04:38;;;;;;;62.35;26.90;;;;;;;;;;1050453;28;20020;-75
2022/11/30 01:05:09;;;;;;;55.60;28.00;;;;;;;;;;1045709;28;20032;-75
2022/11/30 01:05:40;;;;;;;53.30;25.30;;;;;;;;;;1043776;28;20021;-75
2022/11/30 01:06:11;;;;;;;62.28;27.35;;;;;;;;;;1044164;28;20025;-75
2022/11/30 01:06:42;;;;;;;53.85;28.10;;;;;;;;;;1041384;28;20140;-76
2022/11/30 01:07:12;;;;;;;66.65;31.58;;;;;;;;;;1042076;28;20032;-75
2022/11/30 01:07:43;;;;;;;57.53;27.90;;;;;;;;;;1037922;28;20075;-75
2022/11/30 01:08:13;;;;;;;54.80;27.83;;;;;;;;;;1039295;28;20072;-76
2022/11/30 01:08:44;;;;;;;63.10;30.20;;;;;;;;;;1037222;28;20505;-75
2022/11/30 01:09:15;;;;;;;62.08;30.15;;;;;;;;;;1041751;28;20143;-75
2022/11/30 01:09:45;;;;;;;69.45;27.02;;;;;;;;;;1046099;28;20468;-75
2022/11/30 01:10:16;;;;;;;57.33;30.27;;;;;;;;;;1050640;28;20024;-75
2022/11/30 01:10:52;;;;;;;66.18;31.55;;;;;;;;;;1049246;28;20436;-75
2022/11/30 01:11:24;;;;;;;64.13;29.83;;;;;;;;;;1045070;28;20119;-75
2022/11/30 01:11:54;;;;;;;72.25;32.78;;;;;;;;;;1045298;28;20530;-76
2022/11/30 01:12:25;;;;;;;54.00;29.33;;;;;;;;;;1043414;28;20020;-74
2022/11/30 01:12:56;;;;;;;65.93;31.15;;;;;;;;;;1040013;28;20025;-75
2022/11/30 01:13:26;;;;;;;69.43;34.45;;;;;;;;;;1041771;28;20032;-75
2022/11/30 01:13:57;;;;;;;71.47;35.70;;;;;;;;;;1041836;28;20415;-75
2022/11/30 01:14:28;;;;;;;74.00;34.28;;;;;;;;;;1044844;28;20436;-75
2022/11/30 01:14:59;;;;;;;69.07;35.45;;;;;;;;;;1050291;28;20103;-75
2022/11/30 01:15:29;;;;;;;67.97;36.58;;;;;;;;;;1046626;28;20540;-75
2022/11/30 01:16:00;;;;;;;80.70;39.55;;;;;;;;;;1042376;28;20453;-75
2022/11/30 01:16:32;;;;;;;84.55;40.75;;;;;;;;;;1042886;28;20024;-77
2022/11/30 01:17:02;;;;;;;75.13;37.35;;;;;;;;;;1042196;28;20025;-78
2022/11/30 01:17:33;;;;;;;84.82;42.17;;;;;;;;;;1046655;28;20024;-75
2022/11/30 01:18:04;;;;;;;84.03;41.60;;;;;;;;;;1042351;28;20021;-75
2022/11/30 01:18:36;;;;;;;105.80;46.35;;;;;;;;;;1042056;28;20029;-75
2022/11/30 01:19:06;;;;;;;106.00;51.88;;;;;;;;;;1048566;28;20013;-75
2022/11/30 01:19:37;;;;;;;123.88;57.80;;;;;;;;;;1047226;28;20116;-75
2022/11/30 01:20:08;;;;;;;124.20;59.90;;;;;;;;;;1046448;28;20032;-75
2022/11/30 01:20:39;;;;;;;118.22;50.47;;;;;;;;;;1046497;28;20063;-75
2022/11/30 01:21:12;;;;;;;112.85;52.40;;;;;;;;;;1046022;28;20119;-75
2022/11/30 01:21:43;;;;;;;134.98;54.60;;;;;;;;;;1047575;28;20027;-76
2022/11/30 01:22:14;;;;;;;129.63;55.97;;;;;;;;;;1048338;28;20017;-76
2022/11/30 01:22:44;;;;;;;114.40;56.22;;;;;;;;;;1044869;28;20907;-76
2022/11/30 01:23:15;;;;;;;140.82;57.42;;;;;;;;;;1044884;28;20523;-76
2022/11/30 01:23:46;;;;;;;115.90;54.08;;;;;;;;;;1044936;28;20138;-76
2022/11/30 01:24:16;;;;;;;127.35;57.75;;;;;;;;;;1045125;28;20013;-77
2022/11/30 01:24:47;;;;;;;134.45;54.20;;;;;;;;;;1050390;28;20026;-75
2022/11/30 01:25:17;;;;;;;127.63;54.08;;;;;;;;;;1051961;28;20122;-75
2022/11/30 01:25:54;;;;;;;121.15;51.00;;;;;;;;;;1052191;28;20020;-76
2022/11/30 01:26:25;;;;;;;117.40;43.67;;;;;;;;;;1051203;28;20092;-76
2022/11/30 01:26:55;;;;;;;110.55;47.80;;;;;;;;;;1052947;28;20028;-76
2022/11/30 01:27:26;;;;;;;112.32;50.78;;;;;;;;;;1051322;28;20182;-76
2022/11/30 01:27:57;;;;;;;73.55;33.42;;;;;;;;;;1052121;28;20020;-76
2022/11/30 01:28:27;;;;;;;79.97;33.20;;;;;;;;;;1053401;28;20039;-76
2022/11/30 01:28:58;;;;;;;113.22;49.50;;;;;;;;;;1046545;28;20029;-77
2022/11/30 01:29:28;;;;;;;113.75;48.65;;;;;;;;;;1046650;28;20012;-78
2022/11/30 01:29:59;;;;;;;102.07;46.38;;;;;;;;;;1041957;28;20021;-76
2022/11/30 01:30:30;;;;;;;112.25;49.95;;;;;;;;;;1041427;28;20099;-76
2022/11/30 01:31:04;;;;;;;108.03;48.35;;;;;;;;;;1039517;28;20025;-75
2022/11/30 01:31:35;;;;;;;123.05;45.00;;;;;;;;;;1043040;28;20072;-75
2022/11/30 01:32:06;;;;;;;109.07;46.67;;;;;;;;;;1040135;28;20025;-75
2022/11/30 01:32:37;;;;;;;100.65;44.60;;;;;;;;;;1036591;28;20503;-75
2022/11/30 01:33:07;;;;;;;96.45;41.45;;;;;;;;;;1037249;28;20029;-75
2022/11/30 01:33:38;;;;;;;99.95;39.65;;;;;;;;;;1040115;28;20014;-75
2022/11/30 01:34:08;;;;;;;86.95;38.97;;;;;;;;;;1045012;28;20025;-75
2022/11/30 01:34:39;;;;;;;87.88;38.78;;;;;;;;;;1051743;28;20020;-75
2022/11/30 01:35:10;;;;;;;88.78;40.25;;;;;;;;;;1050050;28;20024;-75
2022/11/30 01:35:40;;;;;;;76.95;35.17;;;;;;;;;;1048245;28;20107;-76
2022/11/30 01:36:12;;;;;;;76.50;37.03;;;;;;;;;;1042087;28;20028;-76
2022/11/30 01:36:43;;;;;;;72.25;34.63;;;;;;;;;;1043778;28;20112;-76
2022/11/30 01:37:14;;;;;;;76.05;37.53;;;;;;;;;;1044673;28;20104;-76
2022/11/30 01:37:44;;;;;;;79.60;33.58;;;;;;;;;;1039533;28;20116;-76
2022/11/30 01:38:15;;;;;;;77.03;31.30;;;;;;;;;;1043691;28;20017;-76
2022/11/30 01:38:50;;;;;;;62.97;31.08;;;;;;;;;;1044367;28;20100;-76
2022/11/30 01:39:20;;;;;;;65.43;32.60;;;;;;;;;;1045883;28;20021;-77
2022/11/30 01:39:51;;;;;;;73.93;35.85;;;;;;;;;;1041974;28;20384;-77
2022/11/30 01:40:21;;;;;;;90.20;36.63;;;;;;;;;;1044742;28;20029;-76
2022/11/30 01:40:52;;;;;;;72.57;33.45;;;;;;;;;;1042449;28;20029;-76
2022/11/30 01:41:25;;;;;;;82.50;37.45;;;;;;;;;;1044241;28;20066;-75
2022/11/30 01:41:55;;;;;;;86.00;36.03;;;;;;;;;;1046110;28;20020;-75
2022/11/30 01:42:26;;;;;;;81.78;37.55;;;;;;;;;;1045043;28;20020;-75
2022/11/30 01:42:57;;;;;;;75.95;38.10;;;;;;;;;;1042591;28;20032;-76
2022/11/30 01:43:47;;;;;;;84.57;37.60;;;;;;;;;;1041327;28;20053;-76
2022/11/30 01:44:25;;;;;;;82.18;35.75;;;;;;;;;;1044438;28;20013;-76
2022/11/30 01:44:56;;;;;;;95.25;38.08;;;;;;;;;;1046012;28;20466;-75
2022/11/30 01:45:27;;;;;;;75.53;34.67;;;;;;;;;;1041781;28;20040;-75
2022/11/30 01:45:57;;;;;;;85.03;41.72;;;;;;;;;;1039560;28;20021;-75
2022/11/30 01:46:28;;;;;;;117.57;51.33;;;;;;;;;;1039033;28;20553;-75
2022/11/30 01:47:02;;;;;;;119.00;53.95;;;;;;;;;;1036590;28;20088;-75
2022/11/30 01:47:38;;;;;;;124.70;58.15;;;;;;;;;;1038456;28;20036;-75
2022/11/30 01:48:09;;;;;;;115.32;53.80;;;;;;;;;;1040596;28;20035;-75
2022/11/30 01:48:39;;;;;;;109.38;48.53;;;;;;;;;;1039472;28;20017;-75
2022/11/30 01:49:10;;;;;;;107.50;51.22;;;;;;;;;;1041131;28;20108;-75
2022/11/30 01:49:43;;;;;;;101.03;47.17;;;;;;;;;;1040267;28;20134;-75
2022/11/30 01:50:19;;;;;;;107.45;51.25;;;;;;;;;;1038017;28;20025;-75
2022/11/30 01:50:50;;;;;;;115.60;50.97;;;;;;;;;;1032938;28;20076;-75
2022/11/30 01:51:21;;;;;;;106.05;50.00;;;;;;;;;;1038460;28;20083;-76
2022/11/30 01:51:53;;;;;;;114.72;50.25;;;;;;;;;;1035768;28;20030;-76
2022/11/30 01:52:30;;;;;;;120.05;52.67;;;;;;;;;;1040726;28;20044;-76
2022/11/30 01:53:02;;;;;;;113.15;52.90;;;;;;;;;;1039232;28;20029;-77
2022/11/30 01:53:33;;;;;;;101.20;50.25;;;;;;;;;;1043517;28;20023;-75
2022/11/30 01:54:06;;;;;;;102.03;48.42;;;;;;;;;;1042132;28;20021;-75
2022/11/30 01:54:39;;;;;;;120.78;54.00;;;;;;;;;;1039414;28;20118;-76
2022/11/30 01:55:15;;;;;;;116.65;54.88;;;;;;;;;;1038730;28;20033;-76
2022/11/30 01:55:48;;;;;;;108.88;53.90;;;;;;;;;;1040343;28;20165;-76
2022/11/30 01:56:18;;;;;;;132.15;58.15;;;;;;;;;;1046931;28;20072;-76
2022/11/30 01:57:01;;;;;;;124.28;57.53;;;;;;;;;;1043746;28;20154;-76
2022/11/30 01:57:35;;;;;;;125.30;59.00;;;;;;;;;;1042472;28;20059;-76
2022/11/30 01:58:08;;;;;;;128.02;56.03;;;;;;;;;;1043645;28;20013;-76
2022/11/30 01:58:39;;;;;;;131.60;60.20;;;;;;;;;;1044819;28;20036;-76
2022/11/30 01:59:10;;;;;;;112.35;56.25;;;;;;;;;;1045265;28;20072;-76
2022/11/30 01:59:41;;;;;;;118.72;57.92;;;;;;;;;;1040489;28;20020;-75
2022/11/30 02:00:13;;;;;;;98.63;48.05;;;;;;;;;;1039870;28;20542;-75
2022/11/30 02:00:46;;;;;;;129.32;56.47;;;;;;;;;;1039415;28;20074;-76
2022/11/30 02:01:16;;;;;;;116.97;54.65;;;;;;;;;;1038650;28;20099;-76
2022/11/30 02:01:47;;;;;;;111.93;56.20;;;;;;;;;;1044045;28;20043;-76
2022/11/30 02:02:19;;;;;;;114.55;54.28;;;;;;;;;;1045269;28;20198;-76
2022/11/30 02:03:09;;;;;;;117.88;53.50;;;;;;;;;;1049303;28;20018;-76
2022/11/30 02:03:48;;;;;;;106.72;48.40;;;;;;;;;;1044607;28;20016;-76
2022/11/30 02:04:20;;;;;;;120.68;55.67;;;;;;;;;;1044007;28;20044;-76
2022/11/30 02:04:51;;;;;;;119.18;55.13;;;;;;;;;;1042938;28;20443;-76
2022/11/30 02:05:22;;;;;;;129.73;57.08;;;;;;;;;;1043177;28;20135;-76
2022/11/30 02:05:53;;;;;;;126.18;58.45;;;;;;;;;;1042816;28;20361;-76
2022/11/30 02:06:24;;;;;;;127.70;55.95;;;;;;;;;;1044251;28;20140;-76
2022/11/30 02:06:55;;;;;;;110.05;54.88;;;;;;;;;;1045225;28;20024;-76
2022/11/30 02:07:26;;;;;;;131.82;57.63;;;;;;;;;;1044894;28;20061;-76
2022/11/30 02:07:57;;;;;;;138.00;55.75;;;;;;;;;;1044481;28;20028;-76
2022/11/30 02:08:29;;;;;;;120.82;55.45;;;;;;;;;;1044831;28;20365;-76
2022/11/30 02:09:00;;;;;;;116.88;56.25;;;;;;;;;;1044348;22;20021;-76
2022/11/30 02:09:33;;;;;;;116.68;55.67;;;;;;;;;;1034780;28;20022;-76
2022/11/30 02:10:04;;;;;;;123.05;56.55;;;;;;;;;;1035754;28;20054;-76
2022/11/30 02:10:35;;;;;;;118.88;55.00;;;;;;;;;;1035396;28;20026;-77
2022/11/30 02:11:10;;;;;;;129.07;55.70;;;;;;;;;;1039356;28;20112;-77
2022/11/30 02:11:40;;;;;;;122.30;56.03;;;;;;;;;;1038064;28;20037;-76
2022/11/30 02:12:18;;;;;;;118.30;56.78;;;;;;;;;;1035364;28;20093;-76
2022/11/30 02:12:58;;;;;;;101.22;49.05;;;;;;;;;;1036111;28;20029;-75
2022/11/30 02:13:29;;;;;;;;;;;;;;;;;;1035544;28;20604;-75
2022/11/30 02:14:15;;;;;;;96.93;45.65;;;;;;;;;;1034484;28;19916;-75
2022/11/30 02:14:48;;;;;;;111.10;48.85;;;;;;;;;;1034176;28;20022;-75
2022/11/30 02:15:21;;;;;;;94.20;46.97;;;;;;;;;;1033149;28;20496;-75
2022/11/30 02:15:57;;;;;;;106.32;47.40;;;;;;;;;;1030548;28;20161;-76
2022/11/30 02:16:34;;;;;;;107.70;50.15;;;;;;;;;;1030252;28;20066;-75
2022/11/30 02:17:04;;;;;;;110.57;49.08;;;;;;;;;;1030175;28;20584;-75
2022/11/30 02:17:41;;;;;;;117.13;52.33;;;;;;;;;;1033371;28;20058;-76
2022/11/30 02:18:19;;;;;;;113.38;52.97;;;;;;;;;;1036082;28;20543;-76
2022/11/30 02:18:56;;;;;;;123.82;51.72;;;;;;;;;;1038287;28;20018;-76
2022/11/30 02:19:27;;;;;;;109.25;48.97;;;;;;;;;;1036159;28;20036;-76
2022/11/30 02:20:10;;;;;;;110.10;49.95;;;;;;;;;;1033053;28;20041;-76
2022/11/30 02:20:49;;;;;;;101.63;48.28;;;;;;;;;;1033004;28;20027;-75
2022/11/30 02:21:19;;;;;;;123.95;53.78;;;;;;;;;;1034633;28;20048;-76
2022/11/30 02:22:13;;;;;;;113.88;55.20;;;;;;;;;;1038442;28;20032;-76
2022/11/30 02:22:58;;;;;;;111.00;57.67;;;;;;;;;;1038687;28;20028;-76
2022/11/30 02:23:35;;;;;;;127.65;58.50;;;;;;;;;;1035753;28;20025;-76
2022/11/30 02:24:28;;;;;;;126.55;59.13;;;;;;;;;;1034555;28;20037;-76
2022/11/30 02:25:15;;;;;;;128.10;56.75;;;;;;;;;;1030983;28;20019;-77
2022/11/30 02:25:46;;;;;;;134.10;60.10;;;;;;;;;;1035337;28;20025;-76
2022/11/30 02:26:42;;;;;;;141.27;62.95;;;;;;;;;;1040573;28;20956;-76
2022/11/30 02:27:22;;;;;;;114.68;51.95;;;;;;;;;;1037590;28;20433;-77
2022/11/30 02:27:55;;;;;;;107.32;51.55;;;;;;;;;;1038742;28;20021;-77
2022/11/30 02:28:52;;;;;;;126.20;54.47;;;;;;;;;;1038662;28;20025;-77
2022/11/30 02:29:58;;;;;;;109.25;48.95;;;;;;;;;;1039060;28;20029;-77
2022/11/30 02:30:30;;;;;;;110.78;49.03;;;;;;;;;;1015977;29;20053;-77
2022/11/30 02:31:03;;;;;;;97.70;44.35;;;;;;;;;;1015883;29;20034;-76
2022/11/30 02:31:39;;;;;;;110.57;49.35;;;;;;;;;;1011808;29;20024;-75
2022/11/30 02:32:16;;;;;;;96.93;44.55;;;;;;;;;;1013169;29;20036;-75
2022/11/30 02:32:47;;;;;;;100.03;44.17;;;;;;;;;;1012653;29;20071;-75
2022/11/30 02:33:20;;;;;;;112.32;50.22;;;;;;;;;;1030124;28;20072;-76
2022/11/30 02:33:51;;;;;;;102.40;46.60;;;;;;;;;;1030342;28;20035;-76
2022/11/30 02:34:25;;;;;;;118.15;46.13;;;;;;;;;;1029267;28;20025;-77
2022/11/30 02:34:56;;;;;;;106.20;46.05;;;;;;;;;;1027827;28;20458;-77
2022/11/30 02:35:30;;;;;;;114.40;45.75;;;;;;;;;;1032502;28;20870;-76
2022/11/30 02:36:02;;;;;;;135.40;53.85;;;;;;;;;;1033351;28;20026;-76
2022/11/30 02:36:33;;;;;;;140.27;57.35;;;;;;;;;;1034390;28;20109;-76
2022/11/30 02:37:04;;;;;;;145.70;57.25;;;;;;;;;;1034105;28;20022;-76
2022/11/30 02:37:36;;;;;;;131.18;53.22;;;;;;;;;;1035196;28;20022;-76
2022/11/30 02:38:07;;;;;;;115.97;53.97;;;;;;;;;;1031577;28;20022;-75
2022/11/30 02:38:39;;;;;;;136.38;55.60;;;;;;;;;;1032856;28;20014;-76
2022/11/30 02:39:10;;;;;;;127.90;54.78;;;;;;;;;;1031584;28;20053;-76
2022/11/30 02:39:42;;;;;;;134.23;56.45;;;;;;;;;;1033910;28;20030;-76
2022/11/30 02:40:14;;;;;;;159.45;61.22;;;;;;;;;;1034930;28;20478;-76
2022/11/30 02:40:45;;;;;;;147.40;63.00;;;;;;;;;;1034775;28;20037;-76
2022/11/30 02:41:15;;;;;;;148.15;61.03;;;;;;;;;;1032787;28;20053;-76
2022/11/30 02:41:46;;;;;;;146.65;61.15;;;;;;;;;;1034545;28;20038;-76
2022/11/30 02:42:17;;;;;;;141.20;57.90;;;;;;;;;;1034546;28;20080;-76
2022/11/30 02:42:49;;;;;;;136.00;59.17;;;;;;;;;;1036557;28;20184;-77
2022/11/30 02:43:22;;;;;;;159.77;65.03;;;;;;;;;;1033309;28;20470;-78
2022/11/30 02:43:55;;;;;;;150.00;63.67;;;;;;;;;;1034284;28;20121;-78
2022/11/30 02:44:27;;;;;;;144.98;65.15;;;;;;;;;;1033173;28;20018;-77
2022/11/30 02:44:57;;;;;;;194.70;78.15;;;;;;;;;;1029447;28;20513;-76
2022/11/30 02:45:43;;;;;;;134.07;61.08;;;;;;;;;;1030106;28;20022;-76
2022/11/30 02:46:18;;;;;;;134.32;55.83;;;;;;;;;;1027832;28;20511;-76
2022/11/30 02:46:57;;;;;;;133.32;58.47;;;;;;;;;;1027839;28;20057;-76
2022/11/30 02:47:40;;;;;;;147.05;59.40;;;;;;;;;;1033127;28;20120;-76
2022/11/30 02:48:13;;;;;;;140.13;55.40;;;;;;;;;;1034159;28;20022;-76
2022/11/30 02:48:58;;;;;;;122.38;50.92;;;;;;;;;;1034171;28;20018;-76
2022/11/30 02:49:49;;;;;;;124.90;49.10;;;;;;;;;;1034884;28;20021;-76
2022/11/30 02:50:32;;;;;;;80.35;38.10;;;;;;;;;;1039693;28;20029;-76
2022/11/30 02:51:04;;;;;;;96.00;40.85;;;;;;;;;;1034074;28;20022;-77
2022/11/30 02:51:36;;;;;;;86.63;38.85;;;;;;;;;;1035724;28;20014;-78
2022/11/30 02:52:08;;;;;;;112.28;42.97;;;;;;;;;;1032521;28;20885;-75
2022/11/30 02:52:39;;;;;;;100.70;41.28;;;;;;;;;;1032530;28;20028;-77
2022/11/30 02:53:10;;;;;;;87.72;38.83;;;;;;;;;;1034867;28;20085;-77
2022/11/30 02:53:42;;;;;;;74.70;35.65;;;;;;;;;;1031268;28;20030;-76
2022/11/30 02:54:13;;;;;;;84.55;41.45;;;;;;;;;;1034619;28;20061;-77
2022/11/30 02:54:45;;;;;;;81.93;39.25;;;;;;;;;;1033141;28;20085;-77
2022/11/30 02:55:27;;;;;;;61.58;30.30;;;;;;;;;;1033148;28;20561;-77
2022/11/30 02:56:00;;;;;;;68.25;29.42;;;;;;;;;;1031060;28;20042;-77
2022/11/30 02:56:32;;;;;;;63.63;31.10;;;;;;;;;;1030454;28;20081;-77
2022/11/30 02:57:03;;;;;;;60.35;29.63;;;;;;;;;;1029911;28;20446;-77
2022/11/30 02:57:34;;;;;;;69.93;32.40;;;;;;;;;;1033123;28;20065;-77
2022/11/30 02:58:05;;;;;;;53.33;25.70;;;;;;;;;;1030831;28;20112;-78
2022/11/30 02:58:36;;;;;;;52.33;25.17;;;;;;;;;;1036388;28;20075;-76
2022/11/30 02:59:08;;;;;;;45.42;22.15;;;;;;;;;;1034159;28;20076;-76
2022/11/30 02:59:39;;;;;;;38.53;18.75;;;;;;;;;;1033488;28;20022;-77
2022/11/30 03:00:11;;;;;;;51.60;22.50;;;;;;;;;;1035343;28;20033;-78
2022/11/30 03:00:41;;;;;;;38.75;20.60;;;;;;;;;;1034968;28;20521;-77
2022/11/30 03:01:12;;;;;;;51.35;24.33;;;;;;;;;;1037516;28;20033;-77
2022/11/30 03:01:44;;;;;;;33.30;20.27;;;;;;;;;;1033314;28;20085;-75
2022/11/30 03:02:15;;;;;;;36.67;18.20;;;;;;;;;;1032482;28;20026;-78
2022/11/30 03:02:46;;;;;;;50.15;22.33;;;;;;;;;;1030280;28;20029;-77
2022/11/30 03:03:17;;;;;;;41.78;20.20;;;;;;;;;;1029899;28;20033;-80
2022/11/30 03:03:47;;;;;;;47.88;22.48;;;;;;;;;;1031185;28;20436;-79
2022/11/30 03:04:18;;;;;;;44.50;20.83;;;;;;;;;;1028699;28;20032;-78
2022/11/30 03:04:48;;;;;;;42.13;18.27;;;;;;;;;;1024839;28;20589;-77
2022/11/30 03:05:20;;;;;;;39.30;18.10;;;;;;;;;;1024676;28;20042;-80
2022/11/30 03:05:50;;;;;;;41.08;16.73;;;;;;;;;;1026084;28;20038;-78
2022/11/30 03:06:21;;;;;;;41.83;20.60;;;;;;;;;;1033250;28;20018;-76
2022/11/30 03:06:52;;;;;;;42.60;22.85;;;;;;;;;;1029775;28;20026;-76
2022/11/30 03:07:23;;;;;;;34.85;17.92;;;;;;;;;;1029114;28;20117;-78